Aviation Digital Data Service (ADDS)

Output produced by METARs form (2153 UTC 01 February 2023)
found at http://www.aviationweather.gov/metar/data/
 
KGSP 012007Z 0120/0218 05008KT P6SM OVC009 
     TEMPO 0120/0122 SCT009 BKN022 
     FM020400 05005KT 5SM BR OVC006 
     PROB30 0205/0208 2SM -RA BR OVC004 
     FM020800 06004KT 4SM -RA BR OVC004